sensor_id;sensor_type;location;lat;lon;timestamp;temperature;humidity
59307;DHT22;47983;53.016;-2.260;2023-05-10T00:02:04;8.90;99.90
59307;DHT22;47983;53.016;-2.260;2023-05-10T00:04:33;8.80;99.90
59307;DHT22;47983;53.016;-2.260;2023-05-10T00:07:00;8.80;99.90
59307;DHT22;47983;53.016;-2.260;2023-05-10T00:09:29;8.80;99.90
59307;DHT22;47983;53.016;-2.260;2023-05-10T00:11:57;8.70;99.90
59307;DHT22;47983;53.016;-2.260;2023-05-10T00:14:25;8.70;99.90
59307;DHT22;47983;53.016;-2.260;2023-05-10T00:16:53;8.70;99.90
59307;DHT22;47983;53.016;-2.260;2023-05-10T00:19:22;8.70;99.90
59307;DHT22;47983;53.016;-2.260;2023-05-10T00:21:50;8.60;99.90
59307;DHT22;47983;53.016;-2.260;2023-05-10T00:24:17;8.60;99.90
59307;DHT22;47983;53.016;-2.260;2023-05-10T00:26:45;8.60;99.90
59307;DHT22;47983;53.016;-2.260;2023-05-10T00:29:13;8.60;99.90
59307;DHT22;47983;53.016;-2.260;2023-05-10T00:31:41;8.60;99.90
59307;DHT22;47983;53.016;-2.260;2023-05-10T00:34:09;8.60;99.90
59307;DHT22;47983;53.016;-2.260;2023-05-10T00:36:40;8.50;99.90
59307;DHT22;47983;53.016;-2.260;2023-05-10T00:39:08;8.50;99.90
59307;DHT22;47983;53.016;-2.260;2023-05-10T00:41:36;8.50;99.90
59307;DHT22;47983;53.016;-2.260;2023-05-10T00:44:06;8.50;99.90
59307;DHT22;47983;53.016;-2.260;2023-05-10T00:46:34;8.50;99.90
59307;DHT22;47983;53.016;-2.260;2023-05-10T00:49:02;8.40;99.90
59307;DHT22;47983;53.016;-2.260;2023-05-10T00:51:30;8.40;99.90
59307;DHT22;47983;53.016;-2.260;2023-05-10T00:53:59;8.40;99.90
59307;DHT22;47983;53.016;-2.260;2023-05-10T00:56:27;8.40;99.90
59307;DHT22;47983;53.016;-2.260;2023-05-10T00:58:56;8.40;99.90
59307;DHT22;47983;53.016;-2.260;2023-05-10T01:01:25;8.30;99.90
59307;DHT22;47983;53.016;-2.260;2023-05-10T01:03:53;8.30;99.90
59307;DHT22;47983;53.016;-2.260;2023-05-10T01:06:22;8.20;99.90
59307;DHT22;47983;53.016;-2.260;2023-05-10T01:08:49;8.20;99.90
59307;DHT22;47983;53.016;-2.260;2023-05-10T01:11:18;8.20;99.90
59307;DHT22;47983;53.016;-2.260;2023-05-10T01:13:52;8.10;99.90
59307;DHT22;47983;53.016;-2.260;2023-05-10T01:16:23;8.10;99.90
59307;DHT22;47983;53.016;-2.260;2023-05-10T01:18:52;8.10;99.90
59307;DHT22;47983;53.016;-2.260;2023-05-10T01:30:05;8.00;99.90
59307;DHT22;47983;53.016;-2.260;2023-05-10T01:33:09;7.90;99.90
59307;DHT22;47983;53.016;-2.260;2023-05-10T01:35:51;7.90;99.90
59307;DHT22;47983;53.016;-2.260;2023-05-10T01:38:42;7.90;99.90
59307;DHT22;47983;53.016;-2.260;2023-05-10T01:41:17;7.90;99.90
59307;DHT22;47983;53.016;-2.260;2023-05-10T01:43:48;7.90;99.90
59307;DHT22;47983;53.016;-2.260;2023-05-10T01:46:24;7.80;99.90
59307;DHT22;47983;53.016;-2.260;2023-05-10T01:48:54;7.80;99.90
59307;DHT22;47983;53.016;-2.260;2023-05-10T01:51:25;7.80;99.90
59307;DHT22;47983;53.016;-2.260;2023-05-10T01:54:00;7.80;99.90
59307;DHT22;47983;53.016;-2.260;2023-05-10T01:56:32;7.70;99.90
59307;DHT22;47983;53.016;-2.260;2023-05-10T01:59:05;7.70;99.90
59307;DHT22;47983;53.016;-2.260;2023-05-10T02:01:36;7.60;99.90
59307;DHT22;47983;53.016;-2.260;2023-05-10T02:04:05;7.60;99.90
59307;DHT22;47983;53.016;-2.260;2023-05-10T02:06:34;7.50;99.90
59307;DHT22;47983;53.016;-2.260;2023-05-10T02:09:03;7.50;99.90
59307;DHT22;47983;53.016;-2.260;2023-05-10T02:11:31;7.50;99.90
59307;DHT22;47983;53.016;-2.260;2023-05-10T02:14:00;7.50;99.90
59307;DHT22;47983;53.016;-2.260;2023-05-10T02:16:30;7.50;99.90
59307;DHT22;47983;53.016;-2.260;2023-05-10T02:19:01;7.40;99.90
59307;DHT22;47983;53.016;-2.260;2023-05-10T02:21:30;7.40;99.90
59307;DHT22;47983;53.016;-2.260;2023-05-10T02:24:00;10.60;99.90
59307;DHT22;47983;53.016;-2.260;2023-05-10T02:26:29;7.40;99.90
59307;DHT22;47983;53.016;-2.260;2023-05-10T02:28:59;7.40;99.90
59307;DHT22;47983;53.016;-2.260;2023-05-10T02:31:33;7.40;99.90
59307;DHT22;47983;53.016;-2.260;2023-05-10T02:34:06;7.40;99.90
59307;DHT22;47983;53.016;-2.260;2023-05-10T02:36:36;7.30;99.90
59307;DHT22;47983;53.016;-2.260;2023-05-10T02:39:07;7.20;99.90
59307;DHT22;47983;53.016;-2.260;2023-05-10T02:41:41;7.20;99.90
59307;DHT22;47983;53.016;-2.260;2023-05-10T02:44:10;7.20;99.90
59307;DHT22;47983;53.016;-2.260;2023-05-10T02:46:38;7.20;99.90
59307;DHT22;47983;53.016;-2.260;2023-05-10T02:49:07;7.20;99.90
59307;DHT22;47983;53.016;-2.260;2023-05-10T02:51:39;7.20;99.90
59307;DHT22;47983;53.016;-2.260;2023-05-10T02:54:14;7.20;99.90
59307;DHT22;47983;53.016;-2.260;2023-05-10T02:56:47;7.20;99.90
59307;DHT22;47983;53.016;-2.260;2023-05-10T02:59:18;7.20;99.90
59307;DHT22;47983;53.016;-2.260;2023-05-10T03:01:46;7.20;99.90
59307;DHT22;47983;53.016;-2.260;2023-05-10T03:04:14;7.10;99.90
59307;DHT22;47983;53.016;-2.260;2023-05-10T03:06:42;7.20;99.90
59307;DHT22;47983;53.016;-2.260;2023-05-10T03:09:12;7.20;99.90
59307;DHT22;47983;53.016;-2.260;2023-05-10T03:16:59;7.40;99.90
59307;DHT22;47983;53.016;-2.260;2023-05-10T03:19:36;7.50;99.90
59307;DHT22;47983;53.016;-2.260;2023-05-10T03:22:10;7.50;99.90
59307;DHT22;47983;53.016;-2.260;2023-05-10T03:24:39;7.60;99.90
59307;DHT22;47983;53.016;-2.260;2023-05-10T03:27:10;7.60;99.90
59307;DHT22;47983;53.016;-2.260;2023-05-10T03:29:39;7.70;99.90
59307;DHT22;47983;53.016;-2.260;2023-05-10T03:32:10;7.80;99.90
59307;DHT22;47983;53.016;-2.260;2023-05-10T03:34:42;7.80;99.90
59307;DHT22;47983;53.016;-2.260;2023-05-10T03:37:12;7.90;99.90
59307;DHT22;47983;53.016;-2.260;2023-05-10T03:39:41;8.00;99.90
59307;DHT22;47983;53.016;-2.260;2023-05-10T03:42:10;8.00;99.90
59307;DHT22;47983;53.016;-2.260;2023-05-10T03:44:39;8.10;99.90
59307;DHT22;47983;53.016;-2.260;2023-05-10T03:47:08;8.10;99.90
59307;DHT22;47983;53.016;-2.260;2023-05-10T03:49:37;8.10;99.90
59307;DHT22;47983;53.016;-2.260;2023-05-10T03:52:06;8.10;99.90
59307;DHT22;47983;53.016;-2.260;2023-05-10T03:54:35;8.20;99.90
59307;DHT22;47983;53.016;-2.260;2023-05-10T03:57:03;8.20;99.90
59307;DHT22;47983;53.016;-2.260;2023-05-10T03:59:31;8.20;99.90
59307;DHT22;47983;53.016;-2.260;2023-05-10T04:01:59;8.30;99.90
59307;DHT22;47983;53.016;-2.260;2023-05-10T04:04:27;8.30;99.90
59307;DHT22;47983;53.016;-2.260;2023-05-10T04:06:55;8.40;99.90
59307;DHT22;47983;53.016;-2.260;2023-05-10T04:09:23;8.40;99.90
59307;DHT22;47983;53.016;-2.260;2023-05-10T04:11:51;8.40;99.90
59307;DHT22;47983;53.016;-2.260;2023-05-10T04:14:19;8.40;99.90
59307;DHT22;47983;53.016;-2.260;2023-05-10T04:16:46;8.40;99.90
59307;DHT22;47983;53.016;-2.260;2023-05-10T04:19:14;8.40;99.90
59307;DHT22;47983;53.016;-2.260;2023-05-10T04:21:42;8.40;99.90
59307;DHT22;47983;53.016;-2.260;2023-05-10T04:24:10;8.40;99.90
59307;DHT22;47983;53.016;-2.260;2023-05-10T04:26:39;8.40;99.90
59307;DHT22;47983;53.016;-2.260;2023-05-10T04:29:10;8.40;99.90
59307;DHT22;47983;53.016;-2.260;2023-05-10T04:31:38;9.30;99.90
59307;DHT22;47983;53.016;-2.260;2023-05-10T04:34:06;8.40;99.90
59307;DHT22;47983;53.016;-2.260;2023-05-10T04:36:34;8.50;99.90
59307;DHT22;47983;53.016;-2.260;2023-05-10T04:39:03;8.50;99.90
59307;DHT22;47983;53.016;-2.260;2023-05-10T04:41:31;8.50;99.90
59307;DHT22;47983;53.016;-2.260;2023-05-10T04:43:59;8.50;99.90
59307;DHT22;47983;53.016;-2.260;2023-05-10T04:46:26;8.60;99.90
59307;DHT22;47983;53.016;-2.260;2023-05-10T04:48:56;8.60;99.90
59307;DHT22;47983;53.016;-2.260;2023-05-10T04:51:24;8.60;99.90
59307;DHT22;47983;53.016;-2.260;2023-05-10T04:53:51;8.60;99.90
59307;DHT22;47983;53.016;-2.260;2023-05-10T04:56:33;8.60;99.90
59307;DHT22;47983;53.016;-2.260;2023-05-10T04:59:01;8.60;99.90
59307;DHT22;47983;53.016;-2.260;2023-05-10T05:03:57;8.50;99.90
59307;DHT22;47983;53.016;-2.260;2023-05-10T05:06:25;8.40;99.90
59307;DHT22;47983;53.016;-2.260;2023-05-10T05:08:55;8.40;99.90
59307;DHT22;47983;53.016;-2.260;2023-05-10T05:11:22;8.40;99.90
59307;DHT22;47983;53.016;-2.260;2023-05-10T05:13:50;8.30;99.90
59307;DHT22;47983;53.016;-2.260;2023-05-10T05:16:18;8.20;99.90
59307;DHT22;47983;53.016;-2.260;2023-05-10T05:18:47;8.20;99.90
59307;DHT22;47983;53.016;-2.260;2023-05-10T05:21:19;8.10;99.90
59307;DHT22;47983;53.016;-2.260;2023-05-10T05:23:47;8.10;99.90
59307;DHT22;47983;53.016;-2.260;2023-05-10T05:26:15;8.10;99.90
59307;DHT22;47983;53.016;-2.260;2023-05-10T05:28:48;8.10;99.90
59307;DHT22;47983;53.016;-2.260;2023-05-10T05:31:21;8.10;99.90
59307;DHT22;47983;53.016;-2.260;2023-05-10T05:33:49;8.10;99.90
59307;DHT22;47983;53.016;-2.260;2023-05-10T05:36:19;8.10;99.90
59307;DHT22;47983;53.016;-2.260;2023-05-10T05:38:48;8.10;99.90
59307;DHT22;47983;53.016;-2.260;2023-05-10T05:41:15;8.10;99.90
59307;DHT22;47983;53.016;-2.260;2023-05-10T05:43:46;8.10;99.90
59307;DHT22;47983;53.016;-2.260;2023-05-10T05:46:14;8.20;99.90
59307;DHT22;47983;53.016;-2.260;2023-05-10T05:48:46;8.20;99.90
59307;DHT22;47983;53.016;-2.260;2023-05-10T05:51:13;8.20;99.90
59307;DHT22;47983;53.016;-2.260;2023-05-10T05:53:44;8.30;99.90
59307;DHT22;47983;53.016;-2.260;2023-05-10T05:56:12;8.50;99.90
59307;DHT22;47983;53.016;-2.260;2023-05-10T05:58:40;8.40;99.90
59307;DHT22;47983;53.016;-2.260;2023-05-10T06:01:08;8.50;99.90
59307;DHT22;47983;53.016;-2.260;2023-05-10T06:03:36;8.70;99.90
59307;DHT22;47983;53.016;-2.260;2023-05-10T06:06:04;8.70;99.90
59307;DHT22;47983;53.016;-2.260;2023-05-10T06:08:34;8.80;99.90
59307;DHT22;47983;53.016;-2.260;2023-05-10T06:11:03;8.90;99.90
59307;DHT22;47983;53.016;-2.260;2023-05-10T06:13:32;8.90;99.90
59307;DHT22;47983;53.016;-2.260;2023-05-10T06:16:02;9.00;99.90
59307;DHT22;47983;53.016;-2.260;2023-05-10T06:18:30;9.10;99.90
59307;DHT22;47983;53.016;-2.260;2023-05-10T06:20:57;9.20;99.90
59307;DHT22;47983;53.016;-2.260;2023-05-10T06:23:25;9.20;99.90
59307;DHT22;47983;53.016;-2.260;2023-05-10T06:25:54;9.40;99.90
59307;DHT22;47983;53.016;-2.260;2023-05-10T06:28:21;9.50;99.90
59307;DHT22;47983;53.016;-2.260;2023-05-10T06:30:49;9.80;99.90
59307;DHT22;47983;53.016;-2.260;2023-05-10T06:33:17;10.00;99.90
59307;DHT22;47983;53.016;-2.260;2023-05-10T06:35:45;10.20;99.90
59307;DHT22;47983;53.016;-2.260;2023-05-10T06:38:13;10.40;99.90
59307;DHT22;47983;53.016;-2.260;2023-05-10T06:40:42;10.60;99.90
59307;DHT22;47983;53.016;-2.260;2023-05-10T06:43:10;10.80;99.90
59307;DHT22;47983;53.016;-2.260;2023-05-10T06:45:38;10.90;99.90
59307;DHT22;47983;53.016;-2.260;2023-05-10T06:48:06;10.90;99.90
59307;DHT22;47983;53.016;-2.260;2023-05-10T06:50:40;10.90;99.90
59307;DHT22;47983;53.016;-2.260;2023-05-10T06:53:08;11.00;99.90
59307;DHT22;47983;53.016;-2.260;2023-05-10T06:55:36;11.20;99.90
59307;DHT22;47983;53.016;-2.260;2023-05-10T06:58:06;11.20;99.90
59307;DHT22;47983;53.016;-2.260;2023-05-10T07:00:40;11.30;99.90
59307;DHT22;47983;53.016;-2.260;2023-05-10T07:03:11;11.40;99.90
59307;DHT22;47983;53.016;-2.260;2023-05-10T07:05:39;11.50;99.90
59307;DHT22;47983;53.016;-2.260;2023-05-10T07:08:07;11.50;99.90
59307;DHT22;47983;53.016;-2.260;2023-05-10T07:10:37;11.60;99.90
59307;DHT22;47983;53.016;-2.260;2023-05-10T07:13:05;11.70;99.90
59307;DHT22;47983;53.016;-2.260;2023-05-10T07:15:34;11.80;99.90
59307;DHT22;47983;53.016;-2.260;2023-05-10T07:18:01;11.90;99.90
59307;DHT22;47983;53.016;-2.260;2023-05-10T07:20:29;12.00;99.90
59307;DHT22;47983;53.016;-2.260;2023-05-10T07:22:57;12.10;99.90
59307;DHT22;47983;53.016;-2.260;2023-05-10T07:25:26;12.40;99.90
59307;DHT22;47983;53.016;-2.260;2023-05-10T07:27:54;12.50;99.90
59307;DHT22;47983;53.016;-2.260;2023-05-10T07:30:22;12.50;99.90
59307;DHT22;47983;53.016;-2.260;2023-05-10T07:32:50;12.60;99.90
59307;DHT22;47983;53.016;-2.260;2023-05-10T07:35:18;12.70;99.90
59307;DHT22;47983;53.016;-2.260;2023-05-10T07:40:15;12.90;99.90
59307;DHT22;47983;53.016;-2.260;2023-05-10T07:42:42;12.90;99.90
59307;DHT22;47983;53.016;-2.260;2023-05-10T07:45:10;13.00;99.90
59307;DHT22;47983;53.016;-2.260;2023-05-10T07:47:38;13.00;99.90
59307;DHT22;47983;53.016;-2.260;2023-05-10T07:50:07;13.10;99.90
59307;DHT22;47983;53.016;-2.260;2023-05-10T07:52:36;13.10;99.90
59307;DHT22;47983;53.016;-2.260;2023-05-10T07:55:06;13.20;99.90
59307;DHT22;47983;53.016;-2.260;2023-05-10T07:57:37;13.30;99.90
59307;DHT22;47983;53.016;-2.260;2023-05-10T08:00:06;13.40;99.90
59307;DHT22;47983;53.016;-2.260;2023-05-10T08:02:41;13.60;99.90
59307;DHT22;47983;53.016;-2.260;2023-05-10T08:05:09;13.60;99.90
59307;DHT22;47983;53.016;-2.260;2023-05-10T08:07:38;13.60;99.90
59307;DHT22;47983;53.016;-2.260;2023-05-10T08:10:06;13.60;99.90
59307;DHT22;47983;53.016;-2.260;2023-05-10T08:12:38;13.50;99.90
59307;DHT22;47983;53.016;-2.260;2023-05-10T08:15:06;13.50;99.90
59307;DHT22;47983;53.016;-2.260;2023-05-10T08:17:35;13.40;99.90
59307;DHT22;47983;53.016;-2.260;2023-05-10T08:20:03;13.40;99.90
59307;DHT22;47983;53.016;-2.260;2023-05-10T08:22:31;13.40;99.90
59307;DHT22;47983;53.016;-2.260;2023-05-10T08:25:01;13.40;99.90
59307;DHT22;47983;53.016;-2.260;2023-05-10T08:27:29;13.50;99.90
59307;DHT22;47983;53.016;-2.260;2023-05-10T08:29:57;13.50;99.90
59307;DHT22;47983;53.016;-2.260;2023-05-10T08:32:25;13.50;99.90
59307;DHT22;47983;53.016;-2.260;2023-05-10T08:34:53;13.50;99.90
59307;DHT22;47983;53.016;-2.260;2023-05-10T08:37:20;13.50;99.90
59307;DHT22;47983;53.016;-2.260;2023-05-10T08:42:19;13.40;99.90
59307;DHT22;47983;53.016;-2.260;2023-05-10T08:44:50;13.40;99.90
59307;DHT22;47983;53.016;-2.260;2023-05-10T08:47:20;13.30;99.90
59307;DHT22;47983;53.016;-2.260;2023-05-10T08:49:49;13.30;99.90
59307;DHT22;47983;53.016;-2.260;2023-05-10T08:52:18;13.30;99.90
59307;DHT22;47983;53.016;-2.260;2023-05-10T08:54:47;13.30;99.90
59307;DHT22;47983;53.016;-2.260;2023-05-10T08:57:16;13.30;99.90
59307;DHT22;47983;53.016;-2.260;2023-05-10T08:59:44;13.40;99.90
59307;DHT22;47983;53.016;-2.260;2023-05-10T09:02:13;13.30;99.90
59307;DHT22;47983;53.016;-2.260;2023-05-10T09:04:45;13.40;99.90
59307;DHT22;47983;53.016;-2.260;2023-05-10T09:07:13;13.50;99.90
59307;DHT22;47983;53.016;-2.260;2023-05-10T09:09:45;13.60;99.90
59307;DHT22;47983;53.016;-2.260;2023-05-10T09:12:14;13.80;99.90
59307;DHT22;47983;53.016;-2.260;2023-05-10T09:14:44;14.00;99.90
59307;DHT22;47983;53.016;-2.260;2023-05-10T09:17:13;14.10;99.90
59307;DHT22;47983;53.016;-2.260;2023-05-10T09:19:45;14.20;99.90
59307;DHT22;47983;53.016;-2.260;2023-05-10T09:22:13;14.30;99.90
59307;DHT22;47983;53.016;-2.260;2023-05-10T09:24:42;14.30;99.90
59307;DHT22;47983;53.016;-2.260;2023-05-10T09:27:13;14.30;99.90
59307;DHT22;47983;53.016;-2.260;2023-05-10T09:29:42;14.30;99.90
59307;DHT22;47983;53.016;-2.260;2023-05-10T09:32:12;14.40;99.90
59307;DHT22;47983;53.016;-2.260;2023-05-10T09:34:42;14.40;99.90
59307;DHT22;47983;53.016;-2.260;2023-05-10T09:37:11;14.50;99.90
59307;DHT22;47983;53.016;-2.260;2023-05-10T09:39:39;14.60;99.90
59307;DHT22;47983;53.016;-2.260;2023-05-10T09:42:10;14.80;99.90
59307;DHT22;47983;53.016;-2.260;2023-05-10T09:44:38;15.00;99.90
59307;DHT22;47983;53.016;-2.260;2023-05-10T09:47:17;15.30;99.90
59307;DHT22;47983;53.016;-2.260;2023-05-10T09:49:50;15.50;99.90
59307;DHT22;47983;53.016;-2.260;2023-05-10T09:52:18;15.80;99.90
59307;DHT22;47983;53.016;-2.260;2023-05-10T09:54:53;15.90;99.90
59307;DHT22;47983;53.016;-2.260;2023-05-10T09:57:22;16.00;99.90
59307;DHT22;47983;53.016;-2.260;2023-05-10T09:59:50;16.10;99.90
59307;DHT22;47983;53.016;-2.260;2023-05-10T10:02:20;16.20;99.90
59307;DHT22;47983;53.016;-2.260;2023-05-10T10:04:52;16.20;99.90
59307;DHT22;47983;53.016;-2.260;2023-05-10T10:07:23;16.20;99.90
59307;DHT22;47983;53.016;-2.260;2023-05-10T10:09:53;16.20;99.90
59307;DHT22;47983;53.016;-2.260;2023-05-10T10:12:21;16.30;99.90
59307;DHT22;47983;53.016;-2.260;2023-05-10T10:14:49;16.30;99.90
59307;DHT22;47983;53.016;-2.260;2023-05-10T10:17:19;16.60;99.90
59307;DHT22;47983;53.016;-2.260;2023-05-10T10:22:17;16.90;99.90
59307;DHT22;47983;53.016;-2.260;2023-05-10T10:24:45;16.80;99.90
59307;DHT22;47983;53.016;-2.260;2023-05-10T10:30:47;16.30;99.90
59307;DHT22;47983;53.016;-2.260;2023-05-10T10:36:20;15.60;99.90
59307;DHT22;47983;53.016;-2.260;2023-05-10T10:41:35;15.50;99.90
59307;DHT22;47983;53.016;-2.260;2023-05-10T10:52:30;15.40;99.90
59307;DHT22;47983;53.016;-2.260;2023-05-10T10:55:30;15.40;99.90
59307;DHT22;47983;53.016;-2.260;2023-05-10T10:57:58;15.60;99.90
59307;DHT22;47983;53.016;-2.260;2023-05-10T11:00:31;15.70;99.90
59307;DHT22;47983;53.016;-2.260;2023-05-10T11:03:05;15.90;99.90
59307;DHT22;47983;53.016;-2.260;2023-05-10T11:08:17;16.60;99.90
59307;DHT22;47983;53.016;-2.260;2023-05-10T11:16:21;17.20;99.90
59307;DHT22;47983;53.016;-2.260;2023-05-10T11:21:21;16.00;99.90
59307;DHT22;47983;53.016;-2.260;2023-05-10T11:23:51;15.80;99.90
59307;DHT22;47983;53.016;-2.260;2023-05-10T11:26:19;15.20;99.90
59307;DHT22;47983;53.016;-2.260;2023-05-10T11:28:52;15.20;99.90
59307;DHT22;47983;53.016;-2.260;2023-05-10T11:31:21;15.00;99.90
59307;DHT22;47983;53.016;-2.260;2023-05-10T11:33:51;14.90;99.90
59307;DHT22;47983;53.016;-2.260;2023-05-10T11:36:24;14.80;99.90
59307;DHT22;47983;53.016;-2.260;2023-05-10T11:38:53;14.90;99.90
59307;DHT22;47983;53.016;-2.260;2023-05-10T11:41:22;15.10;99.90
59307;DHT22;47983;53.016;-2.260;2023-05-10T11:43:52;15.80;99.90
59307;DHT22;47983;53.016;-2.260;2023-05-10T11:46:22;15.70;99.90
59307;DHT22;47983;53.016;-2.260;2023-05-10T11:48:58;16.20;99.90
59307;DHT22;47983;53.016;-2.260;2023-05-10T11:51:28;16.50;99.90
59307;DHT22;47983;53.016;-2.260;2023-05-10T11:53:56;16.90;99.90
59307;DHT22;47983;53.016;-2.260;2023-05-10T11:56:25;17.30;99.90
59307;DHT22;47983;53.016;-2.260;2023-05-10T11:58:56;17.60;99.90
59307;DHT22;47983;53.016;-2.260;2023-05-10T12:01:26;18.00;99.90
59307;DHT22;47983;53.016;-2.260;2023-05-10T12:03:55;18.30;99.90
59307;DHT22;47983;53.016;-2.260;2023-05-10T12:06:30;18.30;99.90
59307;DHT22;47983;53.016;-2.260;2023-05-10T12:09:01;18.20;99.90
59307;DHT22;47983;53.016;-2.260;2023-05-10T12:11:37;17.90;99.90
59307;DHT22;47983;53.016;-2.260;2023-05-10T12:14:08;17.70;99.90
59307;DHT22;47983;53.016;-2.260;2023-05-10T12:16:37;17.50;99.90
59307;DHT22;47983;53.016;-2.260;2023-05-10T12:19:07;17.30;99.90
59307;DHT22;47983;53.016;-2.260;2023-05-10T12:21:35;17.00;99.90
59307;DHT22;47983;53.016;-2.260;2023-05-10T12:24:04;16.90;99.90
59307;DHT22;47983;53.016;-2.260;2023-05-10T12:26:32;16.70;99.90
59307;DHT22;47983;53.016;-2.260;2023-05-10T12:29:17;16.50;99.90
59307;DHT22;47983;53.016;-2.260;2023-05-10T12:31:56;16.20;99.90
59307;DHT22;47983;53.016;-2.260;2023-05-10T12:34:35;15.70;99.90
59307;DHT22;47983;53.016;-2.260;2023-05-10T12:37:03;15.60;99.90
59307;DHT22;47983;53.016;-2.260;2023-05-10T12:42:08;15.40;99.90
59307;DHT22;47983;53.016;-2.260;2023-05-10T12:44:36;15.30;99.90
59307;DHT22;47983;53.016;-2.260;2023-05-10T12:47:05;15.10;99.90
59307;DHT22;47983;53.016;-2.260;2023-05-10T12:49:33;14.80;99.90
59307;DHT22;47983;53.016;-2.260;2023-05-10T12:52:02;14.60;99.90
59307;DHT22;47983;53.016;-2.260;2023-05-10T12:54:30;14.60;99.90
59307;DHT22;47983;53.016;-2.260;2023-05-10T12:56:57;14.60;99.90
59307;DHT22;47983;53.016;-2.260;2023-05-10T12:59:25;14.60;99.90
59307;DHT22;47983;53.016;-2.260;2023-05-10T13:01:54;15.00;99.90
59307;DHT22;47983;53.016;-2.260;2023-05-10T13:04:21;15.50;99.90
59307;DHT22;47983;53.016;-2.260;2023-05-10T13:06:49;15.60;99.90
59307;DHT22;47983;53.016;-2.260;2023-05-10T13:09:17;15.60;99.90
59307;DHT22;47983;53.016;-2.260;2023-05-10T13:11:45;15.40;99.90
59307;DHT22;47983;53.016;-2.260;2023-05-10T13:14:14;15.10;99.90
59307;DHT22;47983;53.016;-2.260;2023-05-10T13:16:42;14.80;99.90
59307;DHT22;47983;53.016;-2.260;2023-05-10T13:19:10;14.80;99.90
59307;DHT22;47983;53.016;-2.260;2023-05-10T13:21:39;14.70;99.90
59307;DHT22;47983;53.016;-2.260;2023-05-10T13:24:08;14.70;99.90
59307;DHT22;47983;53.016;-2.260;2023-05-10T13:26:36;14.60;99.90
59307;DHT22;47983;53.016;-2.260;2023-05-10T13:29:04;14.50;99.90
59307;DHT22;47983;53.016;-2.260;2023-05-10T13:31:33;14.50;99.90
59307;DHT22;47983;53.016;-2.260;2023-05-10T13:34:01;14.50;99.90
59307;DHT22;47983;53.016;-2.260;2023-05-10T13:36:29;14.40;99.90
59307;DHT22;47983;53.016;-2.260;2023-05-10T13:38:57;14.40;99.90
59307;DHT22;47983;53.016;-2.260;2023-05-10T13:41:24;14.30;99.90
59307;DHT22;47983;53.016;-2.260;2023-05-10T13:43:52;14.30;99.90
59307;DHT22;47983;53.016;-2.260;2023-05-10T13:46:21;14.20;99.90
59307;DHT22;47983;53.016;-2.260;2023-05-10T13:48:48;13.90;99.90
59307;DHT22;47983;53.016;-2.260;2023-05-10T13:51:16;13.90;99.90
59307;DHT22;47983;53.016;-2.260;2023-05-10T13:53:44;13.70;99.90
59307;DHT22;47983;53.016;-2.260;2023-05-10T13:56:14;13.60;99.90
59307;DHT22;47983;53.016;-2.260;2023-05-10T13:58:42;13.50;99.90
59307;DHT22;47983;53.016;-2.260;2023-05-10T14:01:10;13.40;99.90
59307;DHT22;47983;53.016;-2.260;2023-05-10T14:03:39;13.30;99.90
59307;DHT22;47983;53.016;-2.260;2023-05-10T14:06:08;13.20;99.90
59307;DHT22;47983;53.016;-2.260;2023-05-10T14:08:35;13.20;99.90
59307;DHT22;47983;53.016;-2.260;2023-05-10T14:11:03;13.10;99.90
59307;DHT22;47983;53.016;-2.260;2023-05-10T14:13:31;13.10;99.90
59307;DHT22;47983;53.016;-2.260;2023-05-10T14:18:28;13.10;99.90
59307;DHT22;47983;53.016;-2.260;2023-05-10T14:20:59;13.10;99.90
59307;DHT22;47983;53.016;-2.260;2023-05-10T14:23:27;13.10;99.90
59307;DHT22;47983;53.016;-2.260;2023-05-10T14:25:56;13.00;99.90
59307;DHT22;47983;53.016;-2.260;2023-05-10T14:28:24;13.00;99.90
59307;DHT22;47983;53.016;-2.260;2023-05-10T14:30:54;12.90;99.90
59307;DHT22;47983;53.016;-2.260;2023-05-10T14:33:21;12.90;99.90
59307;DHT22;47983;53.016;-2.260;2023-05-10T14:35:49;12.90;99.90
59307;DHT22;47983;53.016;-2.260;2023-05-10T14:38:17;12.90;99.90
59307;DHT22;47983;53.016;-2.260;2023-05-10T14:40:45;12.90;99.90
59307;DHT22;47983;53.016;-2.260;2023-05-10T14:43:13;12.80;99.90
59307;DHT22;47983;53.016;-2.260;2023-05-10T14:45:41;12.90;99.90
59307;DHT22;47983;53.016;-2.260;2023-05-10T14:48:09;12.90;99.90
59307;DHT22;47983;53.016;-2.260;2023-05-10T14:50:39;12.90;99.90
59307;DHT22;47983;53.016;-2.260;2023-05-10T14:53:08;13.00;99.90
59307;DHT22;47983;53.016;-2.260;2023-05-10T14:55:36;13.00;99.90
59307;DHT22;47983;53.016;-2.260;2023-05-10T14:58:05;13.10;99.90
59307;DHT22;47983;53.016;-2.260;2023-05-10T15:00:33;13.20;99.90
59307;DHT22;47983;53.016;-2.260;2023-05-10T15:03:02;13.30;99.90
59307;DHT22;47983;53.016;-2.260;2023-05-10T15:05:31;13.30;99.90
59307;DHT22;47983;53.016;-2.260;2023-05-10T15:07:59;13.30;99.90
59307;DHT22;47983;53.016;-2.260;2023-05-10T15:10:27;13.40;99.90
59307;DHT22;47983;53.016;-2.260;2023-05-10T15:12:55;13.40;99.90
59307;DHT22;47983;53.016;-2.260;2023-05-10T15:15:23;13.50;99.90
59307;DHT22;47983;53.016;-2.260;2023-05-10T15:17:52;13.70;99.90
59307;DHT22;47983;53.016;-2.260;2023-05-10T15:20:20;13.80;99.90
59307;DHT22;47983;53.016;-2.260;2023-05-10T15:22:48;14.00;99.90
59307;DHT22;47983;53.016;-2.260;2023-05-10T15:25:16;14.00;99.90
59307;DHT22;47983;53.016;-2.260;2023-05-10T15:27:44;14.00;99.90
59307;DHT22;47983;53.016;-2.260;2023-05-10T15:30:13;14.00;99.90
59307;DHT22;47983;53.016;-2.260;2023-05-10T15:32:40;13.90;99.90
59307;DHT22;47983;53.016;-2.260;2023-05-10T15:35:09;13.90;99.90
59307;DHT22;47983;53.016;-2.260;2023-05-10T15:37:38;13.80;99.90
59307;DHT22;47983;53.016;-2.260;2023-05-10T15:40:06;13.80;99.90
59307;DHT22;47983;53.016;-2.260;2023-05-10T15:42:34;13.80;99.90
59307;DHT22;47983;53.016;-2.260;2023-05-10T15:45:02;14.30;99.90
59307;DHT22;47983;53.016;-2.260;2023-05-10T15:47:31;15.10;99.90
59307;DHT22;47983;53.016;-2.260;2023-05-10T15:50:00;15.60;99.90
59307;DHT22;47983;53.016;-2.260;2023-05-10T15:52:28;16.10;99.90
59307;DHT22;47983;53.016;-2.260;2023-05-10T15:54:56;16.50;99.90
59307;DHT22;47983;53.016;-2.260;2023-05-10T15:57:23;16.40;99.90
59307;DHT22;47983;53.016;-2.260;2023-05-10T15:59:51;16.40;99.90
59307;DHT22;47983;53.016;-2.260;2023-05-10T16:02:19;16.20;99.90
59307;DHT22;47983;53.016;-2.260;2023-05-10T16:04:49;15.90;99.90
59307;DHT22;47983;53.016;-2.260;2023-05-10T16:07:17;15.70;99.90
59307;DHT22;47983;53.016;-2.260;2023-05-10T16:09:45;15.40;99.90
59307;DHT22;47983;53.016;-2.260;2023-05-10T16:12:13;15.10;99.90
59307;DHT22;47983;53.016;-2.260;2023-05-10T16:14:41;14.90;99.90
59307;DHT22;47983;53.016;-2.260;2023-05-10T16:17:09;14.70;99.90
59307;DHT22;47983;53.016;-2.260;2023-05-10T16:19:37;14.40;99.90
59307;DHT22;47983;53.016;-2.260;2023-05-10T16:22:05;14.40;99.90
59307;DHT22;47983;53.016;-2.260;2023-05-10T16:24:33;14.40;99.90
59307;DHT22;47983;53.016;-2.260;2023-05-10T16:27:01;14.30;99.90
59307;DHT22;47983;53.016;-2.260;2023-05-10T16:29:29;14.30;99.90
59307;DHT22;47983;53.016;-2.260;2023-05-10T16:31:58;14.30;99.90
59307;DHT22;47983;53.016;-2.260;2023-05-10T16:34:26;14.20;99.90